<?xml version="1.0" encoding="utf-8"?>
<gpx xmlns:xsi="http://www.w3.org/2001/XMLSchema-instance" xmlns:xsd="http://www.w3.org/2001/XMLSchema" version="1.1" creator="Shapelink.com" xmlns="http://www.topografix.com/GPX/1/1" xmlns:gpxtpx="http://www.garmin.com/xmlschemas/TrackPointExtension/v1">
  <metadata>
    <name>Löpning 6.67 km, 2017-12-10</name>
    <desc></desc>
    <author><name>Bengt-Åke Forslund</name></author> 
    <time>2017-12-10T13:31:13Z</time>
  </metadata>
  <trk>
    <name>Löpning 6.67 km, 2017-12-10</name>
    <trkseg>
      <trkpt lat="59.8504669" lon="17.6040692">
        <ele>19.8444</ele>
        <time>2017-12-10T13:31:13Z</time>
      </trkpt>
      <trkpt lat="59.8505049" lon="17.6040608">
        <ele>19.3638</ele>
        <time>2017-12-10T13:31:17Z</time>
      </trkpt>
      <trkpt lat="59.8506417" lon="17.6039558">
        <ele>18.4023</ele>
        <time>2017-12-10T13:31:25Z</time>
      </trkpt>
      <trkpt lat="59.8507053" lon="17.6037863">
        <ele>20.8057</ele>
        <time>2017-12-10T13:31:31Z</time>
      </trkpt>
      <trkpt lat="59.8507147" lon="17.6037403">
        <ele>21.767</ele>
        <time>2017-12-10T13:31:32Z</time>
      </trkpt>
      <trkpt lat="59.8507615" lon="17.6034934">
        <ele>27.5349</ele>
        <time>2017-12-10T13:31:38Z</time>
      </trkpt>
      <trkpt lat="59.8508387" lon="17.6032356">
        <ele>30.8995</ele>
        <time>2017-12-10T13:31:45Z</time>
      </trkpt>
      <trkpt lat="59.8509007" lon="17.6030322">
        <ele>33.3029</ele>
        <time>2017-12-10T13:31:51Z</time>
      </trkpt>
      <trkpt lat="59.8509534" lon="17.6028108">
        <ele>31.8607</ele>
        <time>2017-12-10T13:31:55Z</time>
      </trkpt>
      <trkpt lat="59.8510077" lon="17.6025756">
        <ele>31.3801</ele>
        <time>2017-12-10T13:32:00Z</time>
      </trkpt>
      <trkpt lat="59.8510408" lon="17.602379">
        <ele>30.8995</ele>
        <time>2017-12-10T13:32:04Z</time>
      </trkpt>
      <trkpt lat="59.8510924" lon="17.6021236">
        <ele>29.4575</ele>
        <time>2017-12-10T13:32:10Z</time>
      </trkpt>
      <trkpt lat="59.8511674" lon="17.6019764">
        <ele>26.5736</ele>
        <time>2017-12-10T13:32:15Z</time>
      </trkpt>
      <trkpt lat="59.8512125" lon="17.6017495">
        <ele>27.0543</ele>
        <time>2017-12-10T13:32:21Z</time>
      </trkpt>
      <trkpt lat="59.8512013" lon="17.6015341">
        <ele>28.0155</ele>
        <time>2017-12-10T13:32:27Z</time>
      </trkpt>
      <trkpt lat="59.8511378" lon="17.6013247">
        <ele>27.5349</ele>
        <time>2017-12-10T13:32:34Z</time>
      </trkpt>
      <trkpt lat="59.8510328" lon="17.6010566">
        <ele>28.4962</ele>
        <time>2017-12-10T13:32:43Z</time>
      </trkpt>
      <trkpt lat="59.8510234" lon="17.6009823">
        <ele>28.4962</ele>
        <time>2017-12-10T13:32:45Z</time>
      </trkpt>
      <trkpt lat="59.8511179" lon="17.6006854">
        <ele>28.9769</ele>
        <time>2017-12-10T13:32:53Z</time>
      </trkpt>
      <trkpt lat="59.8511933" lon="17.6004461">
        <ele>30.8995</ele>
        <time>2017-12-10T13:32:59Z</time>
      </trkpt>
      <trkpt lat="59.8512514" lon="17.6002469">
        <ele>30.4188</ele>
        <time>2017-12-10T13:33:04Z</time>
      </trkpt>
      <trkpt lat="59.8513386" lon="17.6000116">
        <ele>33.3029</ele>
        <time>2017-12-10T13:33:10Z</time>
      </trkpt>
      <trkpt lat="59.8514063" lon="17.599776">
        <ele>32.8223</ele>
        <time>2017-12-10T13:33:16Z</time>
      </trkpt>
      <trkpt lat="59.8514376" lon="17.5994878">
        <ele>31.8607</ele>
        <time>2017-12-10T13:33:23Z</time>
      </trkpt>
      <trkpt lat="59.8514569" lon="17.5991932">
        <ele>30.4188</ele>
        <time>2017-12-10T13:33:30Z</time>
      </trkpt>
      <trkpt lat="59.8514953" lon="17.5989073">
        <ele>29.4575</ele>
        <time>2017-12-10T13:33:37Z</time>
      </trkpt>
      <trkpt lat="59.8516064" lon="17.5988805">
        <ele>28.9769</ele>
        <time>2017-12-10T13:33:42Z</time>
      </trkpt>
      <trkpt lat="59.8517449" lon="17.5989898">
        <ele>28.0155</ele>
        <time>2017-12-10T13:33:48Z</time>
      </trkpt>
      <trkpt lat="59.851761" lon="17.5990165">
        <ele>27.5349</ele>
        <time>2017-12-10T13:33:49Z</time>
      </trkpt>
      <trkpt lat="59.8517315" lon="17.5989575">
        <ele>27.0543</ele>
        <time>2017-12-10T13:33:53Z</time>
      </trkpt>
      <trkpt lat="59.8517646" lon="17.5988338">
        <ele>28.4962</ele>
        <time>2017-12-10T13:33:57Z</time>
      </trkpt>
      <trkpt lat="59.851773" lon="17.5988142">
        <ele>28.4962</ele>
        <time>2017-12-10T13:33:58Z</time>
      </trkpt>
      <trkpt lat="59.8518024" lon="17.5987367">
        <ele>28.4962</ele>
        <time>2017-12-10T13:34:01Z</time>
      </trkpt>
      <trkpt lat="59.851891" lon="17.5987155">
        <ele>28.9769</ele>
        <time>2017-12-10T13:34:07Z</time>
      </trkpt>
      <trkpt lat="59.8519123" lon="17.5986671">
        <ele>29.4575</ele>
        <time>2017-12-10T13:34:09Z</time>
      </trkpt>
      <trkpt lat="59.8519431" lon="17.5985835">
        <ele>30.8995</ele>
        <time>2017-12-10T13:34:12Z</time>
      </trkpt>
      <trkpt lat="59.8519918" lon="17.5985759">
        <ele>31.3801</ele>
        <time>2017-12-10T13:34:15Z</time>
      </trkpt>
      <trkpt lat="59.8520625" lon="17.5985488">
        <ele>33.3029</ele>
        <time>2017-12-10T13:34:19Z</time>
      </trkpt>
      <trkpt lat="59.8521498" lon="17.5983782">
        <ele>33.3029</ele>
        <time>2017-12-10T13:34:26Z</time>
      </trkpt>
      <trkpt lat="59.8521639" lon="17.59832">
        <ele>33.7834</ele>
        <time>2017-12-10T13:34:28Z</time>
      </trkpt>
      <trkpt lat="59.8521873" lon="17.5982556">
        <ele>34.2642</ele>
        <time>2017-12-10T13:34:30Z</time>
      </trkpt>
      <trkpt lat="59.8522422" lon="17.5981474">
        <ele>32.8223</ele>
        <time>2017-12-10T13:34:35Z</time>
      </trkpt>
      <trkpt lat="59.8522488" lon="17.5979899">
        <ele>33.3029</ele>
        <time>2017-12-10T13:34:41Z</time>
      </trkpt>
      <trkpt lat="59.8523247" lon="17.5979451">
        <ele>33.3029</ele>
        <time>2017-12-10T13:34:46Z</time>
      </trkpt>
      <trkpt lat="59.8523752" lon="17.5979588">
        <ele>33.3029</ele>
        <time>2017-12-10T13:34:49Z</time>
      </trkpt>
      <trkpt lat="59.8524233" lon="17.5980029">
        <ele>31.3801</ele>
        <time>2017-12-10T13:34:52Z</time>
      </trkpt>
      <trkpt lat="59.8525389" lon="17.5979774">
        <ele>30.4188</ele>
        <time>2017-12-10T13:34:59Z</time>
      </trkpt>
      <trkpt lat="59.852578" lon="17.5979997">
        <ele>30.4188</ele>
        <time>2017-12-10T13:35:01Z</time>
      </trkpt>
      <trkpt lat="59.8526494" lon="17.5981065">
        <ele>30.8995</ele>
        <time>2017-12-10T13:35:06Z</time>
      </trkpt>
      <trkpt lat="59.8527426" lon="17.5980545">
        <ele>34.7449</ele>
        <time>2017-12-10T13:35:11Z</time>
      </trkpt>
      <trkpt lat="59.8528301" lon="17.5980646">
        <ele>37.1481</ele>
        <time>2017-12-10T13:35:15Z</time>
      </trkpt>
      <trkpt lat="59.852871" lon="17.5980504">
        <ele>37.1481</ele>
        <time>2017-12-10T13:35:17Z</time>
      </trkpt>
      <trkpt lat="59.852915" lon="17.5979841">
        <ele>37.1481</ele>
        <time>2017-12-10T13:35:20Z</time>
      </trkpt>
      <trkpt lat="59.8529709" lon="17.5978075">
        <ele>36.6675</ele>
        <time>2017-12-10T13:35:26Z</time>
      </trkpt>
      <trkpt lat="59.8530207" lon="17.5976626">
        <ele>36.6675</ele>
        <time>2017-12-10T13:35:31Z</time>
      </trkpt>
      <trkpt lat="59.853041" lon="17.5975929">
        <ele>36.6675</ele>
        <time>2017-12-10T13:35:33Z</time>
      </trkpt>
      <trkpt lat="59.8530892" lon="17.5974724">
        <ele>34.7449</ele>
        <time>2017-12-10T13:35:37Z</time>
      </trkpt>
      <trkpt lat="59.8531968" lon="17.5972744">
        <ele>32.8223</ele>
        <time>2017-12-10T13:35:43Z</time>
      </trkpt>
      <trkpt lat="59.8532171" lon="17.5972168">
        <ele>31.8607</ele>
        <time>2017-12-10T13:35:45Z</time>
      </trkpt>
      <trkpt lat="59.8532737" lon="17.5971384">
        <ele>30.8995</ele>
        <time>2017-12-10T13:35:48Z</time>
      </trkpt>
      <trkpt lat="59.8533881" lon="17.597136">
        <ele>26.0929</ele>
        <time>2017-12-10T13:35:54Z</time>
      </trkpt>
      <trkpt lat="59.8535066" lon="17.5972683">
        <ele>22.7283</ele>
        <time>2017-12-10T13:36:00Z</time>
      </trkpt>
      <trkpt lat="59.853576" lon="17.5974391">
        <ele>20.325</ele>
        <time>2017-12-10T13:36:05Z</time>
      </trkpt>
      <trkpt lat="59.8536153" lon="17.5974903">
        <ele>19.8444</ele>
        <time>2017-12-10T13:36:07Z</time>
      </trkpt>
      <trkpt lat="59.8536357" lon="17.5977148">
        <ele>18.4023</ele>
        <time>2017-12-10T13:36:12Z</time>
      </trkpt>
      <trkpt lat="59.8536217" lon="17.5979776">
        <ele>19.3638</ele>
        <time>2017-12-10T13:36:18Z</time>
      </trkpt>
      <trkpt lat="59.8537113" lon="17.5982076">
        <ele>18.4023</ele>
        <time>2017-12-10T13:36:24Z</time>
      </trkpt>
      <trkpt lat="59.8537816" lon="17.5981313">
        <ele>18.8831</ele>
        <time>2017-12-10T13:36:28Z</time>
      </trkpt>
      <trkpt lat="59.8537833" lon="17.5980736">
        <ele>18.8831</ele>
        <time>2017-12-10T13:36:29Z</time>
      </trkpt>
      <trkpt lat="59.8537964" lon="17.5977913">
        <ele>17.4412</ele>
        <time>2017-12-10T13:36:35Z</time>
      </trkpt>
      <trkpt lat="59.8538118" lon="17.5975993">
        <ele>16.9604</ele>
        <time>2017-12-10T13:36:39Z</time>
      </trkpt>
      <trkpt lat="59.8538651" lon="17.5972691">
        <ele>15.999</ele>
        <time>2017-12-10T13:36:46Z</time>
      </trkpt>
      <trkpt lat="59.8539403" lon="17.5970704">
        <ele>15.5184</ele>
        <time>2017-12-10T13:36:51Z</time>
      </trkpt>
      <trkpt lat="59.8540901" lon="17.5968964">
        <ele>16.4797</ele>
        <time>2017-12-10T13:36:58Z</time>
      </trkpt>
      <trkpt lat="59.8541923" lon="17.5967346">
        <ele>12.6344</ele>
        <time>2017-12-10T13:37:03Z</time>
      </trkpt>
      <trkpt lat="59.8542954" lon="17.5966964">
        <ele>7.82788</ele>
        <time>2017-12-10T13:37:08Z</time>
      </trkpt>
      <trkpt lat="59.8544102" lon="17.5966524">
        <ele>13.5958</ele>
        <time>2017-12-10T13:37:13Z</time>
      </trkpt>
      <trkpt lat="59.8545435" lon="17.596574">
        <ele>15.5184</ele>
        <time>2017-12-10T13:37:19Z</time>
      </trkpt>
      <trkpt lat="59.8546959" lon="17.596453">
        <ele>16.9604</ele>
        <time>2017-12-10T13:37:26Z</time>
      </trkpt>
      <trkpt lat="59.8548079" lon="17.5963896">
        <ele>16.9604</ele>
        <time>2017-12-10T13:37:31Z</time>
      </trkpt>
      <trkpt lat="59.8548691" lon="17.5965462">
        <ele>16.9604</ele>
        <time>2017-12-10T13:37:36Z</time>
      </trkpt>
      <trkpt lat="59.8548748" lon="17.5965882">
        <ele>16.9604</ele>
        <time>2017-12-10T13:37:37Z</time>
      </trkpt>
      <trkpt lat="59.8549258" lon="17.5969688">
        <ele>16.4797</ele>
        <time>2017-12-10T13:37:46Z</time>
      </trkpt>
      <trkpt lat="59.8549804" lon="17.5972998">
        <ele>16.4797</ele>
        <time>2017-12-10T13:37:54Z</time>
      </trkpt>
      <trkpt lat="59.8550323" lon="17.5975834">
        <ele>16.9604</ele>
        <time>2017-12-10T13:38:01Z</time>
      </trkpt>
      <trkpt lat="59.8550891" lon="17.5978682">
        <ele>17.4412</ele>
        <time>2017-12-10T13:38:08Z</time>
      </trkpt>
      <trkpt lat="59.8551631" lon="17.5982432">
        <ele>18.4023</ele>
        <time>2017-12-10T13:38:17Z</time>
      </trkpt>
      <trkpt lat="59.855219" lon="17.598544">
        <ele>18.8831</ele>
        <time>2017-12-10T13:38:24Z</time>
      </trkpt>
      <trkpt lat="59.8552895" lon="17.5988919">
        <ele>19.8444</ele>
        <time>2017-12-10T13:38:32Z</time>
      </trkpt>
      <trkpt lat="59.8553322" lon="17.5991926">
        <ele>20.8057</ele>
        <time>2017-12-10T13:38:39Z</time>
      </trkpt>
      <trkpt lat="59.8553747" lon="17.599433">
        <ele>21.767</ele>
        <time>2017-12-10T13:38:45Z</time>
      </trkpt>
      <trkpt lat="59.8554409" lon="17.5997615">
        <ele>22.7283</ele>
        <time>2017-12-10T13:38:53Z</time>
      </trkpt>
      <trkpt lat="59.8554865" lon="17.5999899">
        <ele>24.651</ele>
        <time>2017-12-10T13:38:59Z</time>
      </trkpt>
      <trkpt lat="59.8555351" lon="17.6001992">
        <ele>26.0929</ele>
        <time>2017-12-10T13:39:04Z</time>
      </trkpt>
      <trkpt lat="59.8555431" lon="17.600237">
        <ele>26.0929</ele>
        <time>2017-12-10T13:39:05Z</time>
      </trkpt>
      <trkpt lat="59.8556119" lon="17.6002786">
        <ele>26.5736</ele>
        <time>2017-12-10T13:39:09Z</time>
      </trkpt>
      <trkpt lat="59.8557404" lon="17.6002145">
        <ele>26.0929</ele>
        <time>2017-12-10T13:39:15Z</time>
      </trkpt>
      <trkpt lat="59.8558953" lon="17.6001873">
        <ele>26.0929</ele>
        <time>2017-12-10T13:39:22Z</time>
      </trkpt>
      <trkpt lat="59.8560713" lon="17.6001526">
        <ele>26.0929</ele>
        <time>2017-12-10T13:39:30Z</time>
      </trkpt>
      <trkpt lat="59.8562294" lon="17.6001914">
        <ele>26.5736</ele>
        <time>2017-12-10T13:39:37Z</time>
      </trkpt>
      <trkpt lat="59.8563206" lon="17.6002592">
        <ele>26.0929</ele>
        <time>2017-12-10T13:39:41Z</time>
      </trkpt>
      <trkpt lat="59.8564322" lon="17.6003928">
        <ele>26.5736</ele>
        <time>2017-12-10T13:39:47Z</time>
      </trkpt>
      <trkpt lat="59.856455" lon="17.6006337">
        <ele>27.5349</ele>
        <time>2017-12-10T13:39:53Z</time>
      </trkpt>
      <trkpt lat="59.856513" lon="17.6006704">
        <ele>28.0155</ele>
        <time>2017-12-10T13:39:57Z</time>
      </trkpt>
      <trkpt lat="59.856575" lon="17.6006692">
        <ele>27.0543</ele>
        <time>2017-12-10T13:40:01Z</time>
      </trkpt>
      <trkpt lat="59.8566189" lon="17.6006318">
        <ele>26.0929</ele>
        <time>2017-12-10T13:40:08Z</time>
      </trkpt>
      <trkpt lat="59.856662" lon="17.600653">
        <ele>26.0929</ele>
        <time>2017-12-10T13:40:11Z</time>
      </trkpt>
      <trkpt lat="59.8567215" lon="17.6007587">
        <ele>25.1317</ele>
        <time>2017-12-10T13:40:15Z</time>
      </trkpt>
      <trkpt lat="59.8567576" lon="17.6008556">
        <ele>24.651</ele>
        <time>2017-12-10T13:40:19Z</time>
      </trkpt>
      <trkpt lat="59.856749" lon="17.6009425">
        <ele>24.1703</ele>
        <time>2017-12-10T13:40:21Z</time>
      </trkpt>
      <trkpt lat="59.8567219" lon="17.6012544">
        <ele>24.651</ele>
        <time>2017-12-10T13:40:28Z</time>
      </trkpt>
      <trkpt lat="59.8567464" lon="17.6015088">
        <ele>25.6123</ele>
        <time>2017-12-10T13:40:34Z</time>
      </trkpt>
      <trkpt lat="59.8567749" lon="17.6017645">
        <ele>26.5736</ele>
        <time>2017-12-10T13:40:40Z</time>
      </trkpt>
      <trkpt lat="59.8568397" lon="17.6020191">
        <ele>26.0929</ele>
        <time>2017-12-10T13:40:46Z</time>
      </trkpt>
      <trkpt lat="59.8569245" lon="17.602221">
        <ele>25.6123</ele>
        <time>2017-12-10T13:40:52Z</time>
      </trkpt>
      <trkpt lat="59.8569856" lon="17.6023815">
        <ele>26.0929</ele>
        <time>2017-12-10T13:40:57Z</time>
      </trkpt>
      <trkpt lat="59.8569963" lon="17.6024102">
        <ele>25.6123</ele>
        <time>2017-12-10T13:40:58Z</time>
      </trkpt>
      <trkpt lat="59.8571182" lon="17.602453">
        <ele>27.5349</ele>
        <time>2017-12-10T13:41:04Z</time>
      </trkpt>
      <trkpt lat="59.8571389" lon="17.602452">
        <ele>27.5349</ele>
        <time>2017-12-10T13:41:05Z</time>
      </trkpt>
      <trkpt lat="59.8572939" lon="17.6024754">
        <ele>29.4575</ele>
        <time>2017-12-10T13:41:12Z</time>
      </trkpt>
      <trkpt lat="59.8573698" lon="17.6025007">
        <ele>30.4188</ele>
        <time>2017-12-10T13:41:15Z</time>
      </trkpt>
      <trkpt lat="59.857505" lon="17.6026142">
        <ele>30.8995</ele>
        <time>2017-12-10T13:41:21Z</time>
      </trkpt>
      <trkpt lat="59.857524" lon="17.6026384">
        <ele>30.4188</ele>
        <time>2017-12-10T13:41:22Z</time>
      </trkpt>
      <trkpt lat="59.8576269" lon="17.6027748">
        <ele>28.4962</ele>
        <time>2017-12-10T13:41:27Z</time>
      </trkpt>
      <trkpt lat="59.857649" lon="17.6028095">
        <ele>28.4962</ele>
        <time>2017-12-10T13:41:28Z</time>
      </trkpt>
      <trkpt lat="59.8577963" lon="17.6031332">
        <ele>26.5736</ele>
        <time>2017-12-10T13:41:36Z</time>
      </trkpt>
      <trkpt lat="59.8578218" lon="17.6033705">
        <ele>24.651</ele>
        <time>2017-12-10T13:41:41Z</time>
      </trkpt>
      <trkpt lat="59.8578901" lon="17.603645">
        <ele>24.1703</ele>
        <time>2017-12-10T13:41:47Z</time>
      </trkpt>
      <trkpt lat="59.8579683" lon="17.6038995">
        <ele>24.651</ele>
        <time>2017-12-10T13:41:53Z</time>
      </trkpt>
      <trkpt lat="59.8581083" lon="17.6040787">
        <ele>26.5736</ele>
        <time>2017-12-10T13:42:00Z</time>
      </trkpt>
      <trkpt lat="59.8582635" lon="17.6041614">
        <ele>26.5736</ele>
        <time>2017-12-10T13:42:07Z</time>
      </trkpt>
      <trkpt lat="59.8584105" lon="17.6042576">
        <ele>28.9769</ele>
        <time>2017-12-10T13:42:13Z</time>
      </trkpt>
      <trkpt lat="59.8585267" lon="17.6043096">
        <ele>32.8223</ele>
        <time>2017-12-10T13:42:18Z</time>
      </trkpt>
      <trkpt lat="59.8585871" lon="17.6043277">
        <ele>35.7061</ele>
        <time>2017-12-10T13:42:21Z</time>
      </trkpt>
      <trkpt lat="59.8586996" lon="17.6044452">
        <ele>36.1868</ele>
        <time>2017-12-10T13:42:26Z</time>
      </trkpt>
      <trkpt lat="59.8588456" lon="17.6045995">
        <ele>33.3029</ele>
        <time>2017-12-10T13:42:32Z</time>
      </trkpt>
      <trkpt lat="59.8590006" lon="17.6047991">
        <ele>29.4575</ele>
        <time>2017-12-10T13:42:39Z</time>
      </trkpt>
      <trkpt lat="59.859106" lon="17.6049878">
        <ele>30.8995</ele>
        <time>2017-12-10T13:42:44Z</time>
      </trkpt>
      <trkpt lat="59.8591588" lon="17.6052296">
        <ele>31.8607</ele>
        <time>2017-12-10T13:42:49Z</time>
      </trkpt>
      <trkpt lat="59.8591903" lon="17.6054726">
        <ele>30.4188</ele>
        <time>2017-12-10T13:42:54Z</time>
      </trkpt>
      <trkpt lat="59.8592427" lon="17.6057273">
        <ele>28.9769</ele>
        <time>2017-12-10T13:42:59Z</time>
      </trkpt>
      <trkpt lat="59.8592984" lon="17.6058916">
        <ele>28.0155</ele>
        <time>2017-12-10T13:43:03Z</time>
      </trkpt>
      <trkpt lat="59.859372" lon="17.6060925">
        <ele>27.5349</ele>
        <time>2017-12-10T13:43:08Z</time>
      </trkpt>
      <trkpt lat="59.8593872" lon="17.6061217">
        <ele>27.5349</ele>
        <time>2017-12-10T13:43:09Z</time>
      </trkpt>
      <trkpt lat="59.8594731" lon="17.6062946">
        <ele>26.0929</ele>
        <time>2017-12-10T13:43:14Z</time>
      </trkpt>
      <trkpt lat="59.8594924" lon="17.6063309">
        <ele>26.0929</ele>
        <time>2017-12-10T13:43:15Z</time>
      </trkpt>
      <trkpt lat="59.8596124" lon="17.6064578">
        <ele>23.6896</ele>
        <time>2017-12-10T13:43:21Z</time>
      </trkpt>
      <trkpt lat="59.8597138" lon="17.6063077">
        <ele>21.767</ele>
        <time>2017-12-10T13:43:27Z</time>
      </trkpt>
      <trkpt lat="59.8597656" lon="17.6061738">
        <ele>22.2476</ele>
        <time>2017-12-10T13:43:31Z</time>
      </trkpt>
      <trkpt lat="59.8597772" lon="17.6061465">
        <ele>22.2476</ele>
        <time>2017-12-10T13:43:32Z</time>
      </trkpt>
      <trkpt lat="59.8598231" lon="17.6060215">
        <ele>22.2476</ele>
        <time>2017-12-10T13:43:36Z</time>
      </trkpt>
      <trkpt lat="59.8598943" lon="17.605845">
        <ele>22.2476</ele>
        <time>2017-12-10T13:43:42Z</time>
      </trkpt>
      <trkpt lat="59.8599801" lon="17.6056412">
        <ele>23.6896</ele>
        <time>2017-12-10T13:43:48Z</time>
      </trkpt>
      <trkpt lat="59.8600285" lon="17.6054585">
        <ele>23.6896</ele>
        <time>2017-12-10T13:43:52Z</time>
      </trkpt>
      <trkpt lat="59.8600962" lon="17.6052618">
        <ele>24.1703</ele>
        <time>2017-12-10T13:43:57Z</time>
      </trkpt>
      <trkpt lat="59.8601584" lon="17.6050241">
        <ele>24.651</ele>
        <time>2017-12-10T13:44:02Z</time>
      </trkpt>
      <trkpt lat="59.8602175" lon="17.6048938">
        <ele>25.6123</ele>
        <time>2017-12-10T13:44:06Z</time>
      </trkpt>
      <trkpt lat="59.8602758" lon="17.6047415">
        <ele>26.0929</ele>
        <time>2017-12-10T13:44:10Z</time>
      </trkpt>
      <trkpt lat="59.860288" lon="17.604701">
        <ele>26.5736</ele>
        <time>2017-12-10T13:44:11Z</time>
      </trkpt>
      <trkpt lat="59.8603494" lon="17.6044633">
        <ele>27.0543</ele>
        <time>2017-12-10T13:44:17Z</time>
      </trkpt>
      <trkpt lat="59.8603815" lon="17.6044032">
        <ele>27.5349</ele>
        <time>2017-12-10T13:44:19Z</time>
      </trkpt>
      <trkpt lat="59.8604989" lon="17.6042642">
        <ele>28.4962</ele>
        <time>2017-12-10T13:44:25Z</time>
      </trkpt>
      <trkpt lat="59.8605739" lon="17.604166">
        <ele>28.9769</ele>
        <time>2017-12-10T13:44:29Z</time>
      </trkpt>
      <trkpt lat="59.860619" lon="17.6041305">
        <ele>28.0155</ele>
        <time>2017-12-10T13:44:31Z</time>
      </trkpt>
      <trkpt lat="59.8607423" lon="17.6040237">
        <ele>26.5736</ele>
        <time>2017-12-10T13:44:36Z</time>
      </trkpt>
      <trkpt lat="59.8608173" lon="17.6039515">
        <ele>25.6123</ele>
        <time>2017-12-10T13:44:39Z</time>
      </trkpt>
      <trkpt lat="59.8609597" lon="17.6038921">
        <ele>26.5736</ele>
        <time>2017-12-10T13:44:46Z</time>
      </trkpt>
      <trkpt lat="59.8610888" lon="17.6038994">
        <ele>28.9769</ele>
        <time>2017-12-10T13:44:51Z</time>
      </trkpt>
      <trkpt lat="59.8612083" lon="17.6039677">
        <ele>28.9769</ele>
        <time>2017-12-10T13:44:56Z</time>
      </trkpt>
      <trkpt lat="59.8613835" lon="17.6041122">
        <ele>28.4962</ele>
        <time>2017-12-10T13:45:03Z</time>
      </trkpt>
      <trkpt lat="59.8615002" lon="17.6041988">
        <ele>27.5349</ele>
        <time>2017-12-10T13:45:08Z</time>
      </trkpt>
      <trkpt lat="59.8615685" lon="17.6042541">
        <ele>25.6123</ele>
        <time>2017-12-10T13:45:11Z</time>
      </trkpt>
      <trkpt lat="59.8617079" lon="17.6041887">
        <ele>24.1703</ele>
        <time>2017-12-10T13:45:17Z</time>
      </trkpt>
      <trkpt lat="59.8617388" lon="17.6040237">
        <ele>23.6896</ele>
        <time>2017-12-10T13:45:21Z</time>
      </trkpt>
      <trkpt lat="59.861726" lon="17.6039574">
        <ele>23.209</ele>
        <time>2017-12-10T13:45:23Z</time>
      </trkpt>
      <trkpt lat="59.8616721" lon="17.6037871">
        <ele>23.6896</ele>
        <time>2017-12-10T13:45:29Z</time>
      </trkpt>
      <trkpt lat="59.8616556" lon="17.6035372">
        <ele>25.1317</ele>
        <time>2017-12-10T13:45:36Z</time>
      </trkpt>
      <trkpt lat="59.8616513" lon="17.6034647">
        <ele>25.6123</ele>
        <time>2017-12-10T13:45:38Z</time>
      </trkpt>
      <trkpt lat="59.8615862" lon="17.6034311">
        <ele>25.1317</ele>
        <time>2017-12-10T13:45:43Z</time>
      </trkpt>
      <trkpt lat="59.8614954" lon="17.6035829">
        <ele>26.5736</ele>
        <time>2017-12-10T13:45:49Z</time>
      </trkpt>
      <trkpt lat="59.8614524" lon="17.6036184">
        <ele>27.0543</ele>
        <time>2017-12-10T13:45:51Z</time>
      </trkpt>
      <trkpt lat="59.8613499" lon="17.6035216">
        <ele>27.0543</ele>
        <time>2017-12-10T13:45:56Z</time>
      </trkpt>
      <trkpt lat="59.8612632" lon="17.6033942">
        <ele>27.0543</ele>
        <time>2017-12-10T13:46:01Z</time>
      </trkpt>
      <trkpt lat="59.86117" lon="17.6033264">
        <ele>27.0543</ele>
        <time>2017-12-10T13:46:06Z</time>
      </trkpt>
      <trkpt lat="59.8610505" lon="17.6032823">
        <ele>26.0929</ele>
        <time>2017-12-10T13:46:11Z</time>
      </trkpt>
      <trkpt lat="59.8609157" lon="17.6032643">
        <ele>23.209</ele>
        <time>2017-12-10T13:46:16Z</time>
      </trkpt>
      <trkpt lat="59.8608303" lon="17.6032286">
        <ele>22.7283</ele>
        <time>2017-12-10T13:46:22Z</time>
      </trkpt>
      <trkpt lat="59.8607909" lon="17.6032373">
        <ele>23.6896</ele>
        <time>2017-12-10T13:46:26Z</time>
      </trkpt>
      <trkpt lat="59.8607029" lon="17.6031755">
        <ele>24.651</ele>
        <time>2017-12-10T13:46:31Z</time>
      </trkpt>
      <trkpt lat="59.8605978" lon="17.6030348">
        <ele>24.1703</ele>
        <time>2017-12-10T13:46:36Z</time>
      </trkpt>
      <trkpt lat="59.8605023" lon="17.602781">
        <ele>23.6896</ele>
        <time>2017-12-10T13:46:42Z</time>
      </trkpt>
      <trkpt lat="59.8604434" lon="17.6026186">
        <ele>24.651</ele>
        <time>2017-12-10T13:46:47Z</time>
      </trkpt>
      <trkpt lat="59.8603807" lon="17.6024401">
        <ele>25.6123</ele>
        <time>2017-12-10T13:46:52Z</time>
      </trkpt>
      <trkpt lat="59.8603377" lon="17.6022132">
        <ele>28.0155</ele>
        <time>2017-12-10T13:46:57Z</time>
      </trkpt>
      <trkpt lat="59.860272" lon="17.6020105">
        <ele>28.9769</ele>
        <time>2017-12-10T13:47:01Z</time>
      </trkpt>
      <trkpt lat="59.8601718" lon="17.6018128">
        <ele>28.9769</ele>
        <time>2017-12-10T13:47:06Z</time>
      </trkpt>
      <trkpt lat="59.8601559" lon="17.6017776">
        <ele>28.9769</ele>
        <time>2017-12-10T13:47:07Z</time>
      </trkpt>
      <trkpt lat="59.8600567" lon="17.6016433">
        <ele>28.4962</ele>
        <time>2017-12-10T13:47:12Z</time>
      </trkpt>
      <trkpt lat="59.8600339" lon="17.6016205">
        <ele>28.4962</ele>
        <time>2017-12-10T13:47:13Z</time>
      </trkpt>
      <trkpt lat="59.8599092" lon="17.6015137">
        <ele>27.5349</ele>
        <time>2017-12-10T13:47:19Z</time>
      </trkpt>
      <trkpt lat="59.8598876" lon="17.6014998">
        <ele>27.0543</ele>
        <time>2017-12-10T13:47:20Z</time>
      </trkpt>
      <trkpt lat="59.8597772" lon="17.6014378">
        <ele>24.651</ele>
        <time>2017-12-10T13:47:25Z</time>
      </trkpt>
      <trkpt lat="59.8596746" lon="17.6013559">
        <ele>24.1703</ele>
        <time>2017-12-10T13:47:30Z</time>
      </trkpt>
      <trkpt lat="59.8596041" lon="17.6013067">
        <ele>23.6896</ele>
        <time>2017-12-10T13:47:33Z</time>
      </trkpt>
      <trkpt lat="59.8594404" lon="17.6011886">
        <ele>23.6896</ele>
        <time>2017-12-10T13:47:40Z</time>
      </trkpt>
      <trkpt lat="59.8593553" lon="17.6011052">
        <ele>23.6896</ele>
        <time>2017-12-10T13:47:44Z</time>
      </trkpt>
      <trkpt lat="59.8593018" lon="17.60104">
        <ele>24.1703</ele>
        <time>2017-12-10T13:47:47Z</time>
      </trkpt>
      <trkpt lat="59.8592157" lon="17.6009357">
        <ele>23.6896</ele>
        <time>2017-12-10T13:47:52Z</time>
      </trkpt>
      <trkpt lat="59.8591784" lon="17.6008157">
        <ele>23.209</ele>
        <time>2017-12-10T13:47:54Z</time>
      </trkpt>
      <trkpt lat="59.8590785" lon="17.6005094">
        <ele>21.767</ele>
        <time>2017-12-10T13:48:00Z</time>
      </trkpt>
      <trkpt lat="59.8589829" lon="17.6001579">
        <ele>20.8057</ele>
        <time>2017-12-10T13:48:08Z</time>
      </trkpt>
      <trkpt lat="59.8589473" lon="17.5998799">
        <ele>19.8444</ele>
        <time>2017-12-10T13:48:14Z</time>
      </trkpt>
      <trkpt lat="59.8590007" lon="17.5996729">
        <ele>19.8444</ele>
        <time>2017-12-10T13:48:19Z</time>
      </trkpt>
      <trkpt lat="59.8590826" lon="17.5993705">
        <ele>18.8831</ele>
        <time>2017-12-10T13:48:26Z</time>
      </trkpt>
      <trkpt lat="59.8591576" lon="17.5991077">
        <ele>18.8831</ele>
        <time>2017-12-10T13:48:32Z</time>
      </trkpt>
      <trkpt lat="59.8592458" lon="17.5987955">
        <ele>19.3638</ele>
        <time>2017-12-10T13:48:39Z</time>
      </trkpt>
      <trkpt lat="59.8593033" lon="17.5984664">
        <ele>18.4023</ele>
        <time>2017-12-10T13:48:46Z</time>
      </trkpt>
      <trkpt lat="59.859302" lon="17.5981644">
        <ele>16.9604</ele>
        <time>2017-12-10T13:48:52Z</time>
      </trkpt>
      <trkpt lat="59.8592499" lon="17.5978895">
        <ele>15.999</ele>
        <time>2017-12-10T13:48:58Z</time>
      </trkpt>
      <trkpt lat="59.8591461" lon="17.5976864">
        <ele>16.9604</ele>
        <time>2017-12-10T13:49:04Z</time>
      </trkpt>
      <trkpt lat="59.8590272" lon="17.5974376">
        <ele>16.4797</ele>
        <time>2017-12-10T13:49:11Z</time>
      </trkpt>
      <trkpt lat="59.8590073" lon="17.5971854">
        <ele>15.999</ele>
        <time>2017-12-10T13:49:16Z</time>
      </trkpt>
      <trkpt lat="59.8590136" lon="17.5968564">
        <ele>14.557</ele>
        <time>2017-12-10T13:49:22Z</time>
      </trkpt>
      <trkpt lat="59.859025" lon="17.596499">
        <ele>14.557</ele>
        <time>2017-12-10T13:49:29Z</time>
      </trkpt>
      <trkpt lat="59.8590327" lon="17.5961768">
        <ele>15.0377</ele>
        <time>2017-12-10T13:49:35Z</time>
      </trkpt>
      <trkpt lat="59.8590502" lon="17.5959101">
        <ele>14.557</ele>
        <time>2017-12-10T13:49:40Z</time>
      </trkpt>
      <trkpt lat="59.8590655" lon="17.5954965">
        <ele>14.0764</ele>
        <time>2017-12-10T13:49:48Z</time>
      </trkpt>
      <trkpt lat="59.8590794" lon="17.5951342">
        <ele>14.557</ele>
        <time>2017-12-10T13:49:55Z</time>
      </trkpt>
      <trkpt lat="59.8590903" lon="17.5948288">
        <ele>15.0377</ele>
        <time>2017-12-10T13:50:01Z</time>
      </trkpt>
      <trkpt lat="59.8591091" lon="17.5944157">
        <ele>14.557</ele>
        <time>2017-12-10T13:50:09Z</time>
      </trkpt>
      <trkpt lat="59.8591165" lon="17.5940727">
        <ele>15.0377</ele>
        <time>2017-12-10T13:50:16Z</time>
      </trkpt>
      <trkpt lat="59.8591376" lon="17.5938081">
        <ele>14.0764</ele>
        <time>2017-12-10T13:50:22Z</time>
      </trkpt>
      <trkpt lat="59.8591415" lon="17.5935647">
        <ele>14.557</ele>
        <time>2017-12-10T13:50:27Z</time>
      </trkpt>
      <trkpt lat="59.8591492" lon="17.5933511">
        <ele>15.5184</ele>
        <time>2017-12-10T13:50:32Z</time>
      </trkpt>
      <trkpt lat="59.8591596" lon="17.5931008">
        <ele>16.4797</ele>
        <time>2017-12-10T13:50:38Z</time>
      </trkpt>
      <trkpt lat="59.859201" lon="17.592858">
        <ele>15.999</ele>
        <time>2017-12-10T13:50:45Z</time>
      </trkpt>
      <trkpt lat="59.8592324" lon="17.592645">
        <ele>15.999</ele>
        <time>2017-12-10T13:50:51Z</time>
      </trkpt>
      <trkpt lat="59.8592404" lon="17.5926068">
        <ele>15.5184</ele>
        <time>2017-12-10T13:50:52Z</time>
      </trkpt>
      <trkpt lat="59.8592616" lon="17.5924121">
        <ele>15.0377</ele>
        <time>2017-12-10T13:50:57Z</time>
      </trkpt>
      <trkpt lat="59.8592856" lon="17.5922146">
        <ele>15.5184</ele>
        <time>2017-12-10T13:51:02Z</time>
      </trkpt>
      <trkpt lat="59.8593094" lon="17.5920521">
        <ele>16.4797</ele>
        <time>2017-12-10T13:51:07Z</time>
      </trkpt>
      <trkpt lat="59.8593222" lon="17.5919096">
        <ele>16.9604</ele>
        <time>2017-12-10T13:51:11Z</time>
      </trkpt>
      <trkpt lat="59.8593631" lon="17.5916484">
        <ele>19.3638</ele>
        <time>2017-12-10T13:51:19Z</time>
      </trkpt>
      <trkpt lat="59.8594088" lon="17.5914493">
        <ele>19.8444</ele>
        <time>2017-12-10T13:51:24Z</time>
      </trkpt>
      <trkpt lat="59.8594199" lon="17.5912585">
        <ele>21.2864</ele>
        <time>2017-12-10T13:51:29Z</time>
      </trkpt>
      <trkpt lat="59.8594178" lon="17.5909206">
        <ele>23.209</ele>
        <time>2017-12-10T13:51:36Z</time>
      </trkpt>
      <trkpt lat="59.8594441" lon="17.5906909">
        <ele>24.1703</ele>
        <time>2017-12-10T13:51:41Z</time>
      </trkpt>
      <trkpt lat="59.8595027" lon="17.5905438">
        <ele>24.1703</ele>
        <time>2017-12-10T13:51:45Z</time>
      </trkpt>
      <trkpt lat="59.8596011" lon="17.5904187">
        <ele>23.6896</ele>
        <time>2017-12-10T13:51:50Z</time>
      </trkpt>
      <trkpt lat="59.8596718" lon="17.5902239">
        <ele>24.1703</ele>
        <time>2017-12-10T13:51:55Z</time>
      </trkpt>
      <trkpt lat="59.8597174" lon="17.5899888">
        <ele>24.651</ele>
        <time>2017-12-10T13:52:00Z</time>
      </trkpt>
      <trkpt lat="59.8597523" lon="17.5897865">
        <ele>25.1317</ele>
        <time>2017-12-10T13:52:04Z</time>
      </trkpt>
      <trkpt lat="59.8597925" lon="17.5894567">
        <ele>25.1317</ele>
        <time>2017-12-10T13:52:10Z</time>
      </trkpt>
      <trkpt lat="59.8598436" lon="17.5892421">
        <ele>25.1317</ele>
        <time>2017-12-10T13:52:15Z</time>
      </trkpt>
      <trkpt lat="59.8599049" lon="17.5890128">
        <ele>24.651</ele>
        <time>2017-12-10T13:52:20Z</time>
      </trkpt>
      <trkpt lat="59.8599312" lon="17.5888118">
        <ele>24.651</ele>
        <time>2017-12-10T13:52:24Z</time>
      </trkpt>
      <trkpt lat="59.8598544" lon="17.5885519">
        <ele>24.651</ele>
        <time>2017-12-10T13:52:30Z</time>
      </trkpt>
      <trkpt lat="59.8598389" lon="17.5885103">
        <ele>25.1317</ele>
        <time>2017-12-10T13:52:31Z</time>
      </trkpt>
      <trkpt lat="59.8597947" lon="17.5883202">
        <ele>25.1317</ele>
        <time>2017-12-10T13:52:35Z</time>
      </trkpt>
      <trkpt lat="59.8597259" lon="17.5881252">
        <ele>24.1703</ele>
        <time>2017-12-10T13:52:40Z</time>
      </trkpt>
      <trkpt lat="59.8596274" lon="17.5879991">
        <ele>22.7283</ele>
        <time>2017-12-10T13:52:45Z</time>
      </trkpt>
      <trkpt lat="59.859603" lon="17.5879835">
        <ele>22.7283</ele>
        <time>2017-12-10T13:52:46Z</time>
      </trkpt>
      <trkpt lat="59.8594507" lon="17.5878022">
        <ele>21.2864</ele>
        <time>2017-12-10T13:52:53Z</time>
      </trkpt>
      <trkpt lat="59.859367" lon="17.5876155">
        <ele>21.2864</ele>
        <time>2017-12-10T13:52:58Z</time>
      </trkpt>
      <trkpt lat="59.8592549" lon="17.5873469">
        <ele>21.2864</ele>
        <time>2017-12-10T13:53:05Z</time>
      </trkpt>
      <trkpt lat="59.8591688" lon="17.5871846">
        <ele>22.2476</ele>
        <time>2017-12-10T13:53:10Z</time>
      </trkpt>
      <trkpt lat="59.8590618" lon="17.587006">
        <ele>22.7283</ele>
        <time>2017-12-10T13:53:16Z</time>
      </trkpt>
      <trkpt lat="59.8589772" lon="17.5868619">
        <ele>23.6896</ele>
        <time>2017-12-10T13:53:21Z</time>
      </trkpt>
      <trkpt lat="59.8588469" lon="17.5866729">
        <ele>24.651</ele>
        <time>2017-12-10T13:53:28Z</time>
      </trkpt>
      <trkpt lat="59.8587434" lon="17.5865433">
        <ele>24.651</ele>
        <time>2017-12-10T13:53:33Z</time>
      </trkpt>
      <trkpt lat="59.8586178" lon="17.5863797">
        <ele>24.651</ele>
        <time>2017-12-10T13:53:39Z</time>
      </trkpt>
      <trkpt lat="59.858477" lon="17.5862699">
        <ele>24.1703</ele>
        <time>2017-12-10T13:53:45Z</time>
      </trkpt>
      <trkpt lat="59.858333" lon="17.5862224">
        <ele>24.1703</ele>
        <time>2017-12-10T13:53:51Z</time>
      </trkpt>
      <trkpt lat="59.8581626" lon="17.5861798">
        <ele>25.6123</ele>
        <time>2017-12-10T13:53:58Z</time>
      </trkpt>
      <trkpt lat="59.8580321" lon="17.5861202">
        <ele>26.0929</ele>
        <time>2017-12-10T13:54:04Z</time>
      </trkpt>
      <trkpt lat="59.857877" lon="17.5860669">
        <ele>26.0929</ele>
        <time>2017-12-10T13:54:11Z</time>
      </trkpt>
      <trkpt lat="59.8577626" lon="17.5860335">
        <ele>25.1317</ele>
        <time>2017-12-10T13:54:16Z</time>
      </trkpt>
      <trkpt lat="59.8576258" lon="17.5859488">
        <ele>24.651</ele>
        <time>2017-12-10T13:54:22Z</time>
      </trkpt>
      <trkpt lat="59.857516" lon="17.5857731">
        <ele>24.651</ele>
        <time>2017-12-10T13:54:28Z</time>
      </trkpt>
      <trkpt lat="59.8573734" lon="17.5857018">
        <ele>25.1317</ele>
        <time>2017-12-10T13:54:34Z</time>
      </trkpt>
      <trkpt lat="59.8572405" lon="17.5856456">
        <ele>26.0929</ele>
        <time>2017-12-10T13:54:40Z</time>
      </trkpt>
      <trkpt lat="59.8570759" lon="17.5855626">
        <ele>27.0543</ele>
        <time>2017-12-10T13:54:47Z</time>
      </trkpt>
      <trkpt lat="59.8569552" lon="17.5854485">
        <ele>26.5736</ele>
        <time>2017-12-10T13:54:52Z</time>
      </trkpt>
      <trkpt lat="59.8568233" lon="17.5852935">
        <ele>26.0929</ele>
        <time>2017-12-10T13:54:58Z</time>
      </trkpt>
      <trkpt lat="59.8566426" lon="17.5851929">
        <ele>25.1317</ele>
        <time>2017-12-10T13:55:05Z</time>
      </trkpt>
      <trkpt lat="59.8564617" lon="17.5851117">
        <ele>24.1703</ele>
        <time>2017-12-10T13:55:12Z</time>
      </trkpt>
      <trkpt lat="59.8563105" lon="17.5850389">
        <ele>24.1703</ele>
        <time>2017-12-10T13:55:18Z</time>
      </trkpt>
      <trkpt lat="59.8561615" lon="17.5849582">
        <ele>24.651</ele>
        <time>2017-12-10T13:55:24Z</time>
      </trkpt>
      <trkpt lat="59.856045" lon="17.5848554">
        <ele>24.1703</ele>
        <time>2017-12-10T13:55:29Z</time>
      </trkpt>
      <trkpt lat="59.8559153" lon="17.5847102">
        <ele>23.6896</ele>
        <time>2017-12-10T13:55:35Z</time>
      </trkpt>
      <trkpt lat="59.8557428" lon="17.584432">
        <ele>23.6896</ele>
        <time>2017-12-10T13:55:44Z</time>
      </trkpt>
      <trkpt lat="59.8555918" lon="17.5842628">
        <ele>23.209</ele>
        <time>2017-12-10T13:55:51Z</time>
      </trkpt>
      <trkpt lat="59.8554724" lon="17.5841852">
        <ele>23.209</ele>
        <time>2017-12-10T13:55:56Z</time>
      </trkpt>
      <trkpt lat="59.85534" lon="17.5840462">
        <ele>22.7283</ele>
        <time>2017-12-10T13:56:02Z</time>
      </trkpt>
      <trkpt lat="59.855241" lon="17.5839161">
        <ele>23.209</ele>
        <time>2017-12-10T13:56:07Z</time>
      </trkpt>
      <trkpt lat="59.8550992" lon="17.5837591">
        <ele>22.2476</ele>
        <time>2017-12-10T13:56:14Z</time>
      </trkpt>
      <trkpt lat="59.8549307" lon="17.5835802">
        <ele>22.7283</ele>
        <time>2017-12-10T13:56:22Z</time>
      </trkpt>
      <trkpt lat="59.8547663" lon="17.5833937">
        <ele>24.1703</ele>
        <time>2017-12-10T13:56:30Z</time>
      </trkpt>
      <trkpt lat="59.8546298" lon="17.5832214">
        <ele>24.651</ele>
        <time>2017-12-10T13:56:37Z</time>
      </trkpt>
      <trkpt lat="59.854492" lon="17.5830593">
        <ele>24.1703</ele>
        <time>2017-12-10T13:56:44Z</time>
      </trkpt>
      <trkpt lat="59.8543661" lon="17.5829286">
        <ele>24.1703</ele>
        <time>2017-12-10T13:56:50Z</time>
      </trkpt>
      <trkpt lat="59.8542196" lon="17.5827677">
        <ele>24.651</ele>
        <time>2017-12-10T13:56:57Z</time>
      </trkpt>
      <trkpt lat="59.8541142" lon="17.5828719">
        <ele>23.6896</ele>
        <time>2017-12-10T13:57:02Z</time>
      </trkpt>
      <trkpt lat="59.854006" lon="17.5831987">
        <ele>22.7283</ele>
        <time>2017-12-10T13:57:10Z</time>
      </trkpt>
      <trkpt lat="59.8539121" lon="17.5834389">
        <ele>22.2476</ele>
        <time>2017-12-10T13:57:16Z</time>
      </trkpt>
      <trkpt lat="59.8538066" lon="17.5836768">
        <ele>20.8057</ele>
        <time>2017-12-10T13:57:22Z</time>
      </trkpt>
      <trkpt lat="59.8536847" lon="17.5839452">
        <ele>19.3638</ele>
        <time>2017-12-10T13:57:29Z</time>
      </trkpt>
      <trkpt lat="59.8535952" lon="17.5841383">
        <ele>18.8831</ele>
        <time>2017-12-10T13:57:34Z</time>
      </trkpt>
      <trkpt lat="59.8534596" lon="17.5844268">
        <ele>18.4023</ele>
        <time>2017-12-10T13:57:42Z</time>
      </trkpt>
      <trkpt lat="59.853359" lon="17.5846517">
        <ele>17.4412</ele>
        <time>2017-12-10T13:57:48Z</time>
      </trkpt>
      <trkpt lat="59.8532659" lon="17.5848438">
        <ele>17.4412</ele>
        <time>2017-12-10T13:57:53Z</time>
      </trkpt>
      <trkpt lat="59.853146" lon="17.5850982">
        <ele>17.4412</ele>
        <time>2017-12-10T13:58:00Z</time>
      </trkpt>
      <trkpt lat="59.8530389" lon="17.5852912">
        <ele>16.9604</ele>
        <time>2017-12-10T13:58:06Z</time>
      </trkpt>
      <trkpt lat="59.8529219" lon="17.5855033">
        <ele>16.4797</ele>
        <time>2017-12-10T13:58:12Z</time>
      </trkpt>
      <trkpt lat="59.8528017" lon="17.5857655">
        <ele>16.4797</ele>
        <time>2017-12-10T13:58:19Z</time>
      </trkpt>
      <trkpt lat="59.8527802" lon="17.5857893">
        <ele>16.4797</ele>
        <time>2017-12-10T13:58:20Z</time>
      </trkpt>
      <trkpt lat="59.852635" lon="17.5857253">
        <ele>15.5184</ele>
        <time>2017-12-10T13:58:26Z</time>
      </trkpt>
      <trkpt lat="59.8525103" lon="17.585653">
        <ele>14.0764</ele>
        <time>2017-12-10T13:58:31Z</time>
      </trkpt>
      <trkpt lat="59.852483" lon="17.5856633">
        <ele>13.5958</ele>
        <time>2017-12-10T13:58:32Z</time>
      </trkpt>
      <trkpt lat="59.8523214" lon="17.5857714">
        <ele>11.6732</ele>
        <time>2017-12-10T13:58:38Z</time>
      </trkpt>
      <trkpt lat="59.8523333" lon="17.5857758">
        <ele>10.7118</ele>
        <time>2017-12-10T13:58:42Z</time>
      </trkpt>
      <trkpt lat="59.8523373" lon="17.585796">
        <ele>10.2312</ele>
        <time>2017-12-10T13:58:43Z</time>
      </trkpt>
      <trkpt lat="59.8522106" lon="17.5858849">
        <ele>7.34717</ele>
        <time>2017-12-10T13:58:47Z</time>
      </trkpt>
      <trkpt lat="59.8520861" lon="17.5859038">
        <ele>10.2312</ele>
        <time>2017-12-10T13:58:51Z</time>
      </trkpt>
      <trkpt lat="59.8519718" lon="17.5860176">
        <ele>10.2312</ele>
        <time>2017-12-10T13:58:55Z</time>
      </trkpt>
      <trkpt lat="59.8518511" lon="17.5861239">
        <ele>10.2312</ele>
        <time>2017-12-10T13:59:00Z</time>
      </trkpt>
      <trkpt lat="59.8518226" lon="17.5861216">
        <ele>10.2312</ele>
        <time>2017-12-10T13:59:01Z</time>
      </trkpt>
      <trkpt lat="59.8517091" lon="17.5862778">
        <ele>10.2312</ele>
        <time>2017-12-10T13:59:06Z</time>
      </trkpt>
      <trkpt lat="59.8515414" lon="17.5864461">
        <ele>12.1538</ele>
        <time>2017-12-10T13:59:14Z</time>
      </trkpt>
      <trkpt lat="59.8513948" lon="17.586585">
        <ele>15.5184</ele>
        <time>2017-12-10T13:59:22Z</time>
      </trkpt>
      <trkpt lat="59.8512844" lon="17.5867002">
        <ele>16.4797</ele>
        <time>2017-12-10T13:59:28Z</time>
      </trkpt>
      <trkpt lat="59.851163" lon="17.5868147">
        <ele>17.4412</ele>
        <time>2017-12-10T13:59:34Z</time>
      </trkpt>
      <trkpt lat="59.8510566" lon="17.5869035">
        <ele>16.4797</ele>
        <time>2017-12-10T13:59:39Z</time>
      </trkpt>
      <trkpt lat="59.8509238" lon="17.5870085">
        <ele>15.999</ele>
        <time>2017-12-10T13:59:45Z</time>
      </trkpt>
      <trkpt lat="59.8508068" lon="17.5870127">
        <ele>15.5184</ele>
        <time>2017-12-10T13:59:50Z</time>
      </trkpt>
      <trkpt lat="59.8506773" lon="17.5869001">
        <ele>15.5184</ele>
        <time>2017-12-10T13:59:56Z</time>
      </trkpt>
      <trkpt lat="59.8505674" lon="17.5868071">
        <ele>15.999</ele>
        <time>2017-12-10T14:00:01Z</time>
      </trkpt>
      <trkpt lat="59.8504428" lon="17.5866818">
        <ele>16.9604</ele>
        <time>2017-12-10T14:00:07Z</time>
      </trkpt>
      <trkpt lat="59.8502883" lon="17.5866085">
        <ele>17.9218</ele>
        <time>2017-12-10T14:00:14Z</time>
      </trkpt>
      <trkpt lat="59.8501465" lon="17.5865853">
        <ele>17.4412</ele>
        <time>2017-12-10T14:00:20Z</time>
      </trkpt>
      <trkpt lat="59.8500427" lon="17.5866423">
        <ele>16.9604</ele>
        <time>2017-12-10T14:00:24Z</time>
      </trkpt>
      <trkpt lat="59.8500213" lon="17.5866583">
        <ele>16.4797</ele>
        <time>2017-12-10T14:00:25Z</time>
      </trkpt>
      <trkpt lat="59.8498856" lon="17.586709">
        <ele>15.5184</ele>
        <time>2017-12-10T14:00:31Z</time>
      </trkpt>
      <trkpt lat="59.8497605" lon="17.5867857">
        <ele>15.0377</ele>
        <time>2017-12-10T14:00:37Z</time>
      </trkpt>
      <trkpt lat="59.8496236" lon="17.5868558">
        <ele>15.5184</ele>
        <time>2017-12-10T14:00:43Z</time>
      </trkpt>
      <trkpt lat="59.8495237" lon="17.5869566">
        <ele>15.5184</ele>
        <time>2017-12-10T14:00:48Z</time>
      </trkpt>
      <trkpt lat="59.849431" lon="17.5869448">
        <ele>15.0377</ele>
        <time>2017-12-10T14:00:52Z</time>
      </trkpt>
      <trkpt lat="59.8493227" lon="17.5869352">
        <ele>14.557</ele>
        <time>2017-12-10T14:00:57Z</time>
      </trkpt>
      <trkpt lat="59.8492502" lon="17.5868507">
        <ele>13.5958</ele>
        <time>2017-12-10T14:01:01Z</time>
      </trkpt>
      <trkpt lat="59.849226" lon="17.5867732">
        <ele>13.5958</ele>
        <time>2017-12-10T14:01:03Z</time>
      </trkpt>
      <trkpt lat="59.8491309" lon="17.5865859">
        <ele>13.1151</ele>
        <time>2017-12-10T14:01:09Z</time>
      </trkpt>
      <trkpt lat="59.8489908" lon="17.5865823">
        <ele>13.5958</ele>
        <time>2017-12-10T14:01:15Z</time>
      </trkpt>
      <trkpt lat="59.8488511" lon="17.5865671">
        <ele>14.0764</ele>
        <time>2017-12-10T14:01:21Z</time>
      </trkpt>
      <trkpt lat="59.8486845" lon="17.5865085">
        <ele>14.557</ele>
        <time>2017-12-10T14:01:28Z</time>
      </trkpt>
      <trkpt lat="59.8485208" lon="17.5864135">
        <ele>14.557</ele>
        <time>2017-12-10T14:01:35Z</time>
      </trkpt>
      <trkpt lat="59.8483592" lon="17.5864088">
        <ele>15.5184</ele>
        <time>2017-12-10T14:01:42Z</time>
      </trkpt>
      <trkpt lat="59.8482312" lon="17.586461">
        <ele>15.999</ele>
        <time>2017-12-10T14:01:47Z</time>
      </trkpt>
      <trkpt lat="59.8481432" lon="17.586276">
        <ele>14.557</ele>
        <time>2017-12-10T14:01:52Z</time>
      </trkpt>
      <trkpt lat="59.8480816" lon="17.5860452">
        <ele>13.5958</ele>
        <time>2017-12-10T14:01:57Z</time>
      </trkpt>
      <trkpt lat="59.8480526" lon="17.585959">
        <ele>13.5958</ele>
        <time>2017-12-10T14:01:59Z</time>
      </trkpt>
      <trkpt lat="59.8479448" lon="17.5857037">
        <ele>13.1151</ele>
        <time>2017-12-10T14:02:06Z</time>
      </trkpt>
      <trkpt lat="59.8478246" lon="17.5854476">
        <ele>13.1151</ele>
        <time>2017-12-10T14:02:13Z</time>
      </trkpt>
      <trkpt lat="59.8477058" lon="17.5851962">
        <ele>13.5958</ele>
        <time>2017-12-10T14:02:20Z</time>
      </trkpt>
      <trkpt lat="59.847621" lon="17.5850279">
        <ele>14.0764</ele>
        <time>2017-12-10T14:02:25Z</time>
      </trkpt>
      <trkpt lat="59.8475054" lon="17.5848018">
        <ele>14.557</ele>
        <time>2017-12-10T14:02:32Z</time>
      </trkpt>
      <trkpt lat="59.8474458" lon="17.5846574">
        <ele>14.0764</ele>
        <time>2017-12-10T14:02:36Z</time>
      </trkpt>
      <trkpt lat="59.8472868" lon="17.5846041">
        <ele>13.1151</ele>
        <time>2017-12-10T14:02:43Z</time>
      </trkpt>
      <trkpt lat="59.8471916" lon="17.5845951">
        <ele>12.6344</ele>
        <time>2017-12-10T14:02:47Z</time>
      </trkpt>
      <trkpt lat="59.8470405" lon="17.584578">
        <ele>13.1151</ele>
        <time>2017-12-10T14:02:53Z</time>
      </trkpt>
      <trkpt lat="59.8469197" lon="17.5846282">
        <ele>13.1151</ele>
        <time>2017-12-10T14:02:58Z</time>
      </trkpt>
      <trkpt lat="59.8468336" lon="17.5848097">
        <ele>14.0764</ele>
        <time>2017-12-10T14:03:04Z</time>
      </trkpt>
      <trkpt lat="59.8467814" lon="17.5850448">
        <ele>14.0764</ele>
        <time>2017-12-10T14:03:10Z</time>
      </trkpt>
      <trkpt lat="59.8467157" lon="17.5853397">
        <ele>14.0764</ele>
        <time>2017-12-10T14:03:17Z</time>
      </trkpt>
      <trkpt lat="59.8466599" lon="17.5856657">
        <ele>14.557</ele>
        <time>2017-12-10T14:03:24Z</time>
      </trkpt>
      <trkpt lat="59.8465923" lon="17.5859477">
        <ele>15.0377</ele>
        <time>2017-12-10T14:03:31Z</time>
      </trkpt>
      <trkpt lat="59.8465352" lon="17.5861957">
        <ele>15.0377</ele>
        <time>2017-12-10T14:03:37Z</time>
      </trkpt>
      <trkpt lat="59.8464664" lon="17.5864974">
        <ele>15.5184</ele>
        <time>2017-12-10T14:03:44Z</time>
      </trkpt>
      <trkpt lat="59.8464043" lon="17.5867859">
        <ele>15.999</ele>
        <time>2017-12-10T14:03:51Z</time>
      </trkpt>
      <trkpt lat="59.846339" lon="17.5870754">
        <ele>15.999</ele>
        <time>2017-12-10T14:03:58Z</time>
      </trkpt>
      <trkpt lat="59.8462587" lon="17.587427">
        <ele>16.4797</ele>
        <time>2017-12-10T14:04:06Z</time>
      </trkpt>
      <trkpt lat="59.8461981" lon="17.5876898">
        <ele>16.4797</ele>
        <time>2017-12-10T14:04:12Z</time>
      </trkpt>
      <trkpt lat="59.8461297" lon="17.5879918">
        <ele>15.0377</ele>
        <time>2017-12-10T14:04:19Z</time>
      </trkpt>
      <trkpt lat="59.8460815" lon="17.5883364">
        <ele>15.0377</ele>
        <time>2017-12-10T14:04:26Z</time>
      </trkpt>
      <trkpt lat="59.8460208" lon="17.588604">
        <ele>15.5184</ele>
        <time>2017-12-10T14:04:32Z</time>
      </trkpt>
      <trkpt lat="59.845984" lon="17.5888745">
        <ele>15.999</ele>
        <time>2017-12-10T14:04:38Z</time>
      </trkpt>
      <trkpt lat="59.8459516" lon="17.5892211">
        <ele>15.999</ele>
        <time>2017-12-10T14:04:45Z</time>
      </trkpt>
      <trkpt lat="59.8459285" lon="17.5895697">
        <ele>16.4797</ele>
        <time>2017-12-10T14:04:52Z</time>
      </trkpt>
      <trkpt lat="59.8459127" lon="17.5898307">
        <ele>15.5184</ele>
        <time>2017-12-10T14:04:57Z</time>
      </trkpt>
      <trkpt lat="59.845911" lon="17.590079">
        <ele>15.5184</ele>
        <time>2017-12-10T14:05:02Z</time>
      </trkpt>
      <trkpt lat="59.8459184" lon="17.5904755">
        <ele>14.557</ele>
        <time>2017-12-10T14:05:10Z</time>
      </trkpt>
      <trkpt lat="59.8459154" lon="17.5907155">
        <ele>13.1151</ele>
        <time>2017-12-10T14:05:15Z</time>
      </trkpt>
      <trkpt lat="59.8458544" lon="17.5910478">
        <ele>13.1151</ele>
        <time>2017-12-10T14:05:22Z</time>
      </trkpt>
      <trkpt lat="59.845776" lon="17.5912136">
        <ele>13.1151</ele>
        <time>2017-12-10T14:05:27Z</time>
      </trkpt>
      <trkpt lat="59.8456532" lon="17.5913115">
        <ele>13.1151</ele>
        <time>2017-12-10T14:05:33Z</time>
      </trkpt>
      <trkpt lat="59.8455968" lon="17.5913753">
        <ele>12.6344</ele>
        <time>2017-12-10T14:05:36Z</time>
      </trkpt>
      <trkpt lat="59.8456091" lon="17.5916754">
        <ele>13.1151</ele>
        <time>2017-12-10T14:05:43Z</time>
      </trkpt>
      <trkpt lat="59.8456449" lon="17.5919406">
        <ele>13.1151</ele>
        <time>2017-12-10T14:05:49Z</time>
      </trkpt>
      <trkpt lat="59.8456656" lon="17.592211">
        <ele>11.1925</ele>
        <time>2017-12-10T14:05:55Z</time>
      </trkpt>
      <trkpt lat="59.8456961" lon="17.592485">
        <ele>11.1925</ele>
        <time>2017-12-10T14:06:01Z</time>
      </trkpt>
      <trkpt lat="59.8457372" lon="17.5927544">
        <ele>10.7118</ele>
        <time>2017-12-10T14:06:07Z</time>
      </trkpt>
      <trkpt lat="59.8457997" lon="17.5931268">
        <ele>13.5958</ele>
        <time>2017-12-10T14:06:15Z</time>
      </trkpt>
      <trkpt lat="59.8458505" lon="17.5934465">
        <ele>15.999</ele>
        <time>2017-12-10T14:06:22Z</time>
      </trkpt>
      <trkpt lat="59.8458943" lon="17.5936449">
        <ele>17.9218</ele>
        <time>2017-12-10T14:06:26Z</time>
      </trkpt>
      <trkpt lat="59.845935" lon="17.5938967">
        <ele>18.8831</ele>
        <time>2017-12-10T14:06:31Z</time>
      </trkpt>
      <trkpt lat="59.845966" lon="17.5942064">
        <ele>18.8831</ele>
        <time>2017-12-10T14:06:37Z</time>
      </trkpt>
      <trkpt lat="59.8460067" lon="17.5945192">
        <ele>19.8444</ele>
        <time>2017-12-10T14:06:43Z</time>
      </trkpt>
      <trkpt lat="59.846037" lon="17.5947689">
        <ele>21.767</ele>
        <time>2017-12-10T14:06:48Z</time>
      </trkpt>
      <trkpt lat="59.8460799" lon="17.5950705">
        <ele>22.2476</ele>
        <time>2017-12-10T14:06:54Z</time>
      </trkpt>
      <trkpt lat="59.8461093" lon="17.5953539">
        <ele>21.2864</ele>
        <time>2017-12-10T14:07:00Z</time>
      </trkpt>
      <trkpt lat="59.8461385" lon="17.5956384">
        <ele>20.325</ele>
        <time>2017-12-10T14:07:06Z</time>
      </trkpt>
      <trkpt lat="59.8461669" lon="17.5958775">
        <ele>20.8057</ele>
        <time>2017-12-10T14:07:11Z</time>
      </trkpt>
      <trkpt lat="59.8462079" lon="17.5961738">
        <ele>19.8444</ele>
        <time>2017-12-10T14:07:17Z</time>
      </trkpt>
      <trkpt lat="59.846266" lon="17.5965177">
        <ele>23.209</ele>
        <time>2017-12-10T14:07:24Z</time>
      </trkpt>
      <trkpt lat="59.8463043" lon="17.596811">
        <ele>22.7283</ele>
        <time>2017-12-10T14:07:30Z</time>
      </trkpt>
      <trkpt lat="59.8463515" lon="17.5971527">
        <ele>22.7283</ele>
        <time>2017-12-10T14:07:37Z</time>
      </trkpt>
      <trkpt lat="59.8463849" lon="17.5974419">
        <ele>22.2476</ele>
        <time>2017-12-10T14:07:43Z</time>
      </trkpt>
      <trkpt lat="59.8464274" lon="17.59779">
        <ele>21.767</ele>
        <time>2017-12-10T14:07:50Z</time>
      </trkpt>
      <trkpt lat="59.8464317" lon="17.5978971">
        <ele>20.8057</ele>
        <time>2017-12-10T14:07:52Z</time>
      </trkpt>
      <trkpt lat="59.8464608" lon="17.5981256">
        <ele>21.2864</ele>
        <time>2017-12-10T14:07:57Z</time>
      </trkpt>
      <trkpt lat="59.8465037" lon="17.5984587">
        <ele>21.2864</ele>
        <time>2017-12-10T14:08:04Z</time>
      </trkpt>
      <trkpt lat="59.8465467" lon="17.598808">
        <ele>20.325</ele>
        <time>2017-12-10T14:08:11Z</time>
      </trkpt>
      <trkpt lat="59.8465755" lon="17.5990475">
        <ele>19.8444</ele>
        <time>2017-12-10T14:08:16Z</time>
      </trkpt>
      <trkpt lat="59.8466233" lon="17.5993817">
        <ele>21.2864</ele>
        <time>2017-12-10T14:08:23Z</time>
      </trkpt>
      <trkpt lat="59.8466564" lon="17.5997114">
        <ele>18.8831</ele>
        <time>2017-12-10T14:08:30Z</time>
      </trkpt>
      <trkpt lat="59.8466864" lon="17.6000464">
        <ele>17.4412</ele>
        <time>2017-12-10T14:08:37Z</time>
      </trkpt>
      <trkpt lat="59.8467465" lon="17.6004502">
        <ele>17.4412</ele>
        <time>2017-12-10T14:08:45Z</time>
      </trkpt>
      <trkpt lat="59.8467815" lon="17.6007008">
        <ele>16.4797</ele>
        <time>2017-12-10T14:08:50Z</time>
      </trkpt>
      <trkpt lat="59.8468259" lon="17.6010466">
        <ele>16.4797</ele>
        <time>2017-12-10T14:08:57Z</time>
      </trkpt>
      <trkpt lat="59.8468845" lon="17.6014304">
        <ele>17.9218</ele>
        <time>2017-12-10T14:09:05Z</time>
      </trkpt>
      <trkpt lat="59.8469425" lon="17.6017629">
        <ele>18.8831</ele>
        <time>2017-12-10T14:09:12Z</time>
      </trkpt>
      <trkpt lat="59.8469858" lon="17.6020385">
        <ele>17.4412</ele>
        <time>2017-12-10T14:09:18Z</time>
      </trkpt>
      <trkpt lat="59.8470435" lon="17.6023655">
        <ele>15.999</ele>
        <time>2017-12-10T14:09:25Z</time>
      </trkpt>
      <trkpt lat="59.8471013" lon="17.602678">
        <ele>14.557</ele>
        <time>2017-12-10T14:09:32Z</time>
      </trkpt>
      <trkpt lat="59.8471734" lon="17.602987">
        <ele>15.0377</ele>
        <time>2017-12-10T14:09:39Z</time>
      </trkpt>
      <trkpt lat="59.8471952" lon="17.6031672">
        <ele>14.0764</ele>
        <time>2017-12-10T14:09:43Z</time>
      </trkpt>
      <trkpt lat="59.8471534" lon="17.6032967">
        <ele>13.5958</ele>
        <time>2017-12-10T14:09:46Z</time>
      </trkpt>
      <trkpt lat="59.8471757" lon="17.6035289">
        <ele>15.0377</ele>
        <time>2017-12-10T14:09:51Z</time>
      </trkpt>
      <trkpt lat="59.8472404" lon="17.6037491">
        <ele>16.4797</ele>
        <time>2017-12-10T14:09:56Z</time>
      </trkpt>
      <trkpt lat="59.847286" lon="17.6040372">
        <ele>16.9604</ele>
        <time>2017-12-10T14:10:02Z</time>
      </trkpt>
      <trkpt lat="59.8472816" lon="17.60435">
        <ele>16.9604</ele>
        <time>2017-12-10T14:10:08Z</time>
      </trkpt>
      <trkpt lat="59.8472424" lon="17.6046306">
        <ele>16.9604</ele>
        <time>2017-12-10T14:10:14Z</time>
      </trkpt>
      <trkpt lat="59.8472019" lon="17.6048938">
        <ele>17.4412</ele>
        <time>2017-12-10T14:10:20Z</time>
      </trkpt>
      <trkpt lat="59.8472041" lon="17.6050958">
        <ele>17.9218</ele>
        <time>2017-12-10T14:10:24Z</time>
      </trkpt>
      <trkpt lat="59.8472606" lon="17.6053969">
        <ele>15.5184</ele>
        <time>2017-12-10T14:10:31Z</time>
      </trkpt>
      <trkpt lat="59.8472665" lon="17.6056331">
        <ele>15.0377</ele>
        <time>2017-12-10T14:10:36Z</time>
      </trkpt>
      <trkpt lat="59.8472761" lon="17.6056775">
        <ele>15.999</ele>
        <time>2017-12-10T14:10:37Z</time>
      </trkpt>
      <trkpt lat="59.8473585" lon="17.6058594">
        <ele>19.8444</ele>
        <time>2017-12-10T14:10:40Z</time>
      </trkpt>
      <trkpt lat="59.847318" lon="17.6061838">
        <ele>17.9218</ele>
        <time>2017-12-10T14:10:47Z</time>
      </trkpt>
      <trkpt lat="59.8472925" lon="17.6063774">
        <ele>17.9218</ele>
        <time>2017-12-10T14:10:51Z</time>
      </trkpt>
      <trkpt lat="59.8472719" lon="17.6065672">
        <ele>19.8444</ele>
        <time>2017-12-10T14:10:55Z</time>
      </trkpt>
      <trkpt lat="59.8472468" lon="17.6068613">
        <ele>20.325</ele>
        <time>2017-12-10T14:11:01Z</time>
      </trkpt>
      <trkpt lat="59.8472505" lon="17.6070954">
        <ele>20.8057</ele>
        <time>2017-12-10T14:11:06Z</time>
      </trkpt>
      <trkpt lat="59.8472501" lon="17.60731">
        <ele>20.325</ele>
        <time>2017-12-10T14:11:11Z</time>
      </trkpt>
      <trkpt lat="59.8472461" lon="17.6075316">
        <ele>19.3638</ele>
        <time>2017-12-10T14:11:16Z</time>
      </trkpt>
      <trkpt lat="59.8472491" lon="17.6075746">
        <ele>18.4023</ele>
        <time>2017-12-10T14:11:17Z</time>
      </trkpt>
      <trkpt lat="59.847334" lon="17.6077405">
        <ele>15.999</ele>
        <time>2017-12-10T14:11:23Z</time>
      </trkpt>
      <trkpt lat="59.8474537" lon="17.6078248">
        <ele>16.9604</ele>
        <time>2017-12-10T14:11:28Z</time>
      </trkpt>
      <trkpt lat="59.8474683" lon="17.6078596">
        <ele>16.9604</ele>
        <time>2017-12-10T14:11:29Z</time>
      </trkpt>
      <trkpt lat="59.8474366" lon="17.6080782">
        <ele>18.4023</ele>
        <time>2017-12-10T14:11:34Z</time>
      </trkpt>
      <trkpt lat="59.8474012" lon="17.6081459">
        <ele>18.4023</ele>
        <time>2017-12-10T14:11:36Z</time>
      </trkpt>
      <trkpt lat="59.8473796" lon="17.6083884">
        <ele>18.4023</ele>
        <time>2017-12-10T14:11:43Z</time>
      </trkpt>
      <trkpt lat="59.8474175" lon="17.6084203">
        <ele>17.9218</ele>
        <time>2017-12-10T14:11:45Z</time>
      </trkpt>
      <trkpt lat="59.847568" lon="17.6085048">
        <ele>17.9218</ele>
        <time>2017-12-10T14:11:52Z</time>
      </trkpt>
      <trkpt lat="59.8477179" lon="17.6086049">
        <ele>17.9218</ele>
        <time>2017-12-10T14:11:59Z</time>
      </trkpt>
      <trkpt lat="59.847854" lon="17.6086391">
        <ele>18.4023</ele>
        <time>2017-12-10T14:12:05Z</time>
      </trkpt>
      <trkpt lat="59.8479675" lon="17.6086811">
        <ele>17.9218</ele>
        <time>2017-12-10T14:12:10Z</time>
      </trkpt>
      <trkpt lat="59.8481097" lon="17.6087345">
        <ele>17.9218</ele>
        <time>2017-12-10T14:12:16Z</time>
      </trkpt>
      <trkpt lat="59.8482456" lon="17.6087716">
        <ele>19.8444</ele>
        <time>2017-12-10T14:12:22Z</time>
      </trkpt>
      <trkpt lat="59.848384" lon="17.6088154">
        <ele>20.325</ele>
        <time>2017-12-10T14:12:28Z</time>
      </trkpt>
      <trkpt lat="59.848526" lon="17.6088759">
        <ele>21.2864</ele>
        <time>2017-12-10T14:12:34Z</time>
      </trkpt>
      <trkpt lat="59.8486938" lon="17.6089301">
        <ele>21.2864</ele>
        <time>2017-12-10T14:12:41Z</time>
      </trkpt>
      <trkpt lat="59.8488403" lon="17.6089851">
        <ele>20.8057</ele>
        <time>2017-12-10T14:12:47Z</time>
      </trkpt>
      <trkpt lat="59.8489776" lon="17.6090292">
        <ele>20.8057</ele>
        <time>2017-12-10T14:12:52Z</time>
      </trkpt>
      <trkpt lat="59.8491031" lon="17.6090614">
        <ele>20.8057</ele>
        <time>2017-12-10T14:12:57Z</time>
      </trkpt>
      <trkpt lat="59.849127" lon="17.6090518">
        <ele>20.8057</ele>
        <time>2017-12-10T14:12:58Z</time>
      </trkpt>
      <trkpt lat="59.8491987" lon="17.6088614">
        <ele>21.2864</ele>
        <time>2017-12-10T14:13:03Z</time>
      </trkpt>
      <trkpt lat="59.849287" lon="17.6086346">
        <ele>21.767</ele>
        <time>2017-12-10T14:13:09Z</time>
      </trkpt>
      <trkpt lat="59.8493783" lon="17.608405">
        <ele>22.7283</ele>
        <time>2017-12-10T14:13:15Z</time>
      </trkpt>
      <trkpt lat="59.8494688" lon="17.6081863">
        <ele>24.651</ele>
        <time>2017-12-10T14:13:21Z</time>
      </trkpt>
      <trkpt lat="59.8495331" lon="17.6079818">
        <ele>25.1317</ele>
        <time>2017-12-10T14:13:26Z</time>
      </trkpt>
      <trkpt lat="59.849581" lon="17.6077057">
        <ele>24.651</ele>
        <time>2017-12-10T14:13:32Z</time>
      </trkpt>
      <trkpt lat="59.8495909" lon="17.6076301">
        <ele>24.651</ele>
        <time>2017-12-10T14:13:34Z</time>
      </trkpt>
      <trkpt lat="59.8495131" lon="17.6074374">
        <ele>23.209</ele>
        <time>2017-12-10T14:13:40Z</time>
      </trkpt>
      <trkpt lat="59.8494579" lon="17.6073613">
        <ele>23.6896</ele>
        <time>2017-12-10T14:13:43Z</time>
      </trkpt>
      <trkpt lat="59.8493264" lon="17.6071754">
        <ele>25.1317</ele>
        <time>2017-12-10T14:13:50Z</time>
      </trkpt>
      <trkpt lat="59.8492734" lon="17.6071224">
        <ele>23.6896</ele>
        <time>2017-12-10T14:13:53Z</time>
      </trkpt>
      <trkpt lat="59.8492672" lon="17.6071127">
        <ele>24.1703</ele>
        <time>2017-12-10T14:13:54Z</time>
      </trkpt>
    </trkseg>
  </trk>
</gpx>